createdAt,value
2022-12-09T00:04:21.591Z,97598.48
2022-12-09T00:09:28.862Z,97600.59
2022-12-09T00:14:36.013Z,97603.79
2022-12-09T00:19:42.831Z,97602.38
2022-12-09T00:24:49.876Z,97603.65
2022-12-09T00:29:56.995Z,97604.12
2022-12-09T00:35:04.957Z,97604.42
2022-12-09T00:40:13.018Z,97609.83
2022-12-09T00:45:20.225Z,97617.31
2022-12-09T00:50:27.166Z,97623.58
2022-12-09T00:55:34.383Z,97636.45
2022-12-09T01:00:41.939Z,97633.95
2022-12-09T01:05:49.411Z,97632.63
2022-12-09T01:10:56.456Z,97629.36
2022-12-09T01:16:03.829Z,97620.45
2022-12-09T01:21:11.094Z,97624.13
2022-12-09T01:26:18.023Z,97622.88
2022-12-09T01:31:25.953Z,97620.31
2022-12-09T01:36:33.172Z,97623.04
2022-12-09T01:41:40.333Z,97625.00
2022-12-09T01:46:47.514Z,97623.36
2022-12-09T01:51:57.634Z,97616.58
2022-12-09T01:57:04.771Z,97603.06
2022-12-09T02:02:13.723Z,97595.34
2022-12-09T02:07:21.614Z,97591.98
2022-12-09T02:12:32.372Z,97587.77
2022-12-09T02:17:41.927Z,97586.30
2022-12-09T02:22:50.024Z,97590.05
2022-12-09T02:28:08.062Z,97589.81
2022-12-09T02:33:24.532Z,97597.07
2022-12-09T02:38:34.663Z,97589.89
2022-12-09T02:43:49.632Z,97584.81
2022-12-09T02:48:58.577Z,97582.78
2022-12-09T02:54:09.960Z,97582.87
2022-12-09T02:59:17.104Z,97579.14
2022-12-09T03:04:26.007Z,97572.27
2022-12-09T03:09:36.046Z,97576.80
2022-12-09T03:14:47.759Z,97573.83
2022-12-09T03:19:56.627Z,97574.45
2022-12-09T03:25:06.997Z,97567.50
2022-12-09T03:30:15.195Z,97570.86
2022-12-09T03:35:23.875Z,97571.88
2022-12-09T03:40:32.355Z,97571.11
2022-12-09T03:45:39.584Z,97572.76
2022-12-09T03:50:49.179Z,97567.69
2022-12-09T03:56:01.309Z,97563.08
2022-12-09T04:01:09.881Z,97556.76
2022-12-09T04:06:17.183Z,97556.52
2022-12-09T04:11:24.349Z,97554.20
2022-12-09T04:16:31.156Z,97558.09
2022-12-09T04:21:38.627Z,97559.19
2022-12-09T04:26:45.953Z,97558.02
2022-12-09T04:31:53.848Z,97560.36
2022-12-09T04:37:01.143Z,97553.41
2022-12-09T04:42:08.683Z,97551.48
2022-12-09T04:47:16.002Z,97550.38
2022-12-09T04:52:23.468Z,97550.23
2022-12-09T04:57:30.866Z,97551.17
2022-12-09T05:02:38.176Z,97552.73
2022-12-09T05:07:45.910Z,97557.95
2022-12-09T05:12:53.354Z,97561.08
2022-12-09T05:18:03.117Z,97559.68
2022-12-09T05:23:10.885Z,97564.21
2022-12-09T05:28:17.939Z,97564.77
2022-12-09T05:33:25.124Z,97560.32
2022-12-09T05:38:32.845Z,97555.95
2022-12-09T05:43:40.179Z,97557.12
2022-12-09T05:48:47.590Z,97553.85
2022-12-09T05:53:55.043Z,97556.57
2022-12-09T05:59:02.547Z,97554.09
2022-12-09T06:04:09.822Z,97559.23
2022-12-09T06:09:17.416Z,97564.63
2022-12-09T06:14:24.256Z,97563.69
2022-12-09T06:19:31.707Z,97563.77
2022-12-09T06:24:38.855Z,97568.77
2022-12-09T06:29:46.189Z,97563.40
2022-12-09T06:34:53.081Z,97562.38
2022-12-09T06:40:00.679Z,97566.75
2022-12-09T06:45:09.307Z,97560.66
2022-12-09T06:50:16.891Z,97553.57
2022-12-09T06:55:24.010Z,97548.65
2022-12-09T07:00:32.761Z,97546.39
2022-12-09T07:05:40.793Z,97542.97
2022-12-09T07:10:54.692Z,97538.91
2022-12-09T07:16:03.781Z,97541.70
2022-12-09T07:21:13.910Z,97542.11
2022-12-09T07:26:21.450Z,97539.84
2022-12-09T07:31:29.512Z,97536.96
2022-12-09T07:36:38.212Z,97540.23
2022-12-09T07:41:46.123Z,97532.77
2022-12-09T07:46:53.664Z,97535.27
2022-12-09T07:52:00.774Z,97533.55
2022-12-09T07:57:08.072Z,97540.17
2022-12-09T08:02:15.313Z,97539.47
2022-12-09T08:07:22.976Z,97542.51
2022-12-09T08:12:30.782Z,97545.02
2022-12-09T08:17:38.160Z,97548.38
2022-12-09T08:22:45.502Z,97547.36
2022-12-09T08:27:52.863Z,97549.92
2022-12-09T08:33:00.150Z,97555.00
2022-12-09T08:38:07.813Z,97559.45
2022-12-09T08:43:15.269Z,97558.12
2022-12-09T08:48:23.040Z,97556.64
2022-12-09T08:53:30.415Z,97553.67
2022-12-09T08:58:38.178Z,97546.34
2022-12-09T09:03:45.861Z,97547.59
2022-12-09T09:08:53.192Z,97547.75
2022-12-09T09:14:00.539Z,97542.77
2022-12-09T09:19:08.074Z,97539.72
2022-12-09T09:24:17.430Z,97530.83
2022-12-09T09:29:24.940Z,97527.71
2022-12-09T09:34:32.031Z,97522.33
2022-12-09T09:39:39.323Z,97518.19
2022-12-09T09:44:48.511Z,97518.42
2022-12-09T09:49:58.092Z,97519.37
2022-12-09T09:55:08.298Z,97511.81
2022-12-09T10:00:23.106Z,97505.88
2022-12-09T10:05:32.894Z,97506.02
2022-12-09T10:10:44.470Z,97501.73
2022-12-09T10:15:56.951Z,97500.79
2022-12-09T10:21:04.932Z,97499.78
2022-12-09T10:26:15.056Z,97492.92
2022-12-09T10:31:22.766Z,97493.55
2022-12-09T10:36:35.368Z,97481.85
2022-12-09T10:42:03.843Z,97474.29
2022-12-09T10:47:27.427Z,97473.82
2022-12-09T10:52:43.773Z,97473.50
2022-12-09T10:57:51.317Z,97477.25
2022-12-09T11:03:12.221Z,97473.35
2022-12-09T11:08:23.477Z,97467.56
2022-12-09T11:13:43.595Z,97469.05
2022-12-09T11:18:51.422Z,97465.31
2022-12-09T11:24:03.273Z,97453.28
2022-12-09T11:29:17.818Z,97442.61
2022-12-09T11:34:28.211Z,97443.23
2022-12-09T11:39:36.249Z,97430.98
2022-12-09T11:44:44.004Z,97426.23
2022-12-09T11:49:52.730Z,97413.61
2022-12-09T11:55:07.646Z,97412.05
2022-12-09T12:00:17.454Z,97397.38
2022-12-09T12:05:26.502Z,97398.53
2022-12-09T12:10:36.606Z,97398.07
2022-12-09T12:15:48.764Z,97389.73
2022-12-09T12:21:09.303Z,97388.39
2022-12-09T12:26:19.265Z,97383.48
2022-12-09T12:31:35.483Z,97377.78
2022-12-09T12:36:47.204Z,97378.41
2022-12-09T12:41:57.996Z,97371.95
2022-12-09T12:47:09.774Z,97356.97
2022-12-09T12:52:55.519Z,97350.04
2022-12-09T12:57:56.394Z,97358.20
2022-12-09T13:03:09.917Z,97348.08
2022-12-09T13:08:20.081Z,97334.84
2022-12-09T13:13:30.472Z,97323.08
2022-12-09T13:18:39.184Z,97327.44
2022-12-09T13:23:53.177Z,97325.43
2022-12-09T13:29:06.406Z,97323.48
2022-12-09T13:34:22.524Z,97327.98
2022-12-09T13:39:46.987Z,97332.61
2022-12-09T13:45:06.175Z,97323.66
2022-12-09T13:50:25.505Z,97307.73
2022-12-09T13:55:34.285Z,97308.23
2022-12-09T14:00:44.168Z,97300.12
2022-12-09T14:05:52.444Z,97298.32
2022-12-09T14:10:59.718Z,97301.20
2022-12-09T14:16:17.375Z,97307.05
2022-12-09T14:21:29.016Z,97311.52
2022-12-09T14:26:40.195Z,97314.48
2022-12-09T14:32:01.100Z,97307.08
2022-12-09T14:37:24.666Z,97297.64
2022-12-09T14:42:37.086Z,97290.78
2022-12-09T14:47:45.728Z,97286.96
2022-12-09T14:52:53.585Z,97296.09
2022-12-09T14:58:02.050Z,97295.41
2022-12-09T15:03:39.543Z,97290.58
2022-12-09T15:08:45.987Z,97298.45
2022-12-09T15:13:54.307Z,97300.40
2022-12-09T15:19:01.578Z,97283.25
2022-12-09T15:24:15.586Z,97277.58
2022-12-09T15:29:23.217Z,97266.58
2022-12-09T15:34:31.107Z,97255.36
2022-12-09T15:39:41.336Z,97247.65
2022-12-09T15:44:51.217Z,97239.23
2022-12-09T15:50:01.387Z,97237.04
2022-12-09T15:55:12.506Z,97230.44
2022-12-09T16:00:19.836Z,97220.63
2022-12-09T16:05:27.637Z,97217.20
2022-12-09T16:10:46.498Z,97210.57
2022-12-09T16:15:54.676Z,97201.98
2022-12-09T16:21:04.546Z,97201.67
2022-12-09T16:26:18.886Z,97199.27
2022-12-09T16:31:26.284Z,97190.38
2022-12-09T16:36:33.806Z,97187.44
2022-12-09T16:41:55.688Z,97187.77
2022-12-09T16:47:24.646Z,97183.92
2022-12-09T16:52:31.668Z,97181.50
2022-12-09T16:57:39.096Z,97172.70
2022-12-09T17:02:47.447Z,97163.52
2022-12-09T17:07:54.443Z,97156.52
2022-12-09T17:13:03.198Z,97155.60
2022-12-09T17:18:10.886Z,97155.91
2022-12-09T17:23:18.227Z,97146.95
2022-12-09T17:28:29.865Z,97141.16
2022-12-09T17:33:37.546Z,97133.23
2022-12-09T17:38:45.183Z,97131.38
2022-12-09T17:43:52.440Z,97124.13
2022-12-09T17:49:01.255Z,97118.27
2022-12-09T17:54:08.655Z,97112.13
2022-12-09T17:59:16.842Z,97112.05
2022-12-09T18:04:23.831Z,97110.34
2022-12-09T18:09:30.976Z,97115.18
2022-12-09T18:14:38.098Z,97111.92
2022-12-09T18:19:45.215Z,97106.55
2022-12-09T18:24:52.546Z,97101.55
2022-12-09T18:29:59.608Z,97090.48
2022-12-09T18:35:06.660Z,97079.89
2022-12-09T18:40:14.716Z,97082.08
2022-12-09T18:45:21.834Z,97077.56
2022-12-09T18:50:28.745Z,97074.30
2022-12-09T18:55:35.665Z,97081.32
2022-12-09T19:00:42.731Z,97073.90
2022-12-09T19:05:49.766Z,97069.72
2022-12-09T19:10:57.116Z,97066.98
2022-12-09T19:16:07.175Z,97062.70
2022-12-09T19:21:15.325Z,97058.42
2022-12-09T19:26:23.014Z,97050.08
2022-12-09T19:31:31.177Z,97040.50
2022-12-09T19:36:39.025Z,97041.66
2022-12-09T19:41:46.526Z,97041.45
2022-12-09T19:46:53.957Z,97039.59
2022-12-09T19:52:00.906Z,97034.23
2022-12-09T19:57:08.022Z,97032.73
2022-12-09T20:02:15.655Z,97029.69
2022-12-09T20:07:22.746Z,97024.16
2022-12-09T20:12:29.834Z,97018.95
2022-12-09T20:17:37.096Z,97006.95
2022-12-09T20:22:44.135Z,97008.51
2022-12-09T20:27:51.594Z,97005.32
2022-12-09T20:32:58.663Z,97009.30
2022-12-09T20:38:05.885Z,97008.23
2022-12-09T20:43:13.095Z,97001.68
2022-12-09T20:48:19.685Z,96999.42
2022-12-09T20:53:26.412Z,96994.05
2022-12-09T20:58:33.025Z,96994.98
2022-12-09T21:03:40.118Z,96988.23
2022-12-09T21:08:47.485Z,96987.22
2022-12-09T21:13:57.005Z,96992.12
2022-12-09T21:19:06.176Z,96992.91
2022-12-09T21:24:13.355Z,96993.45
2022-12-09T21:29:20.153Z,96989.48
2022-12-09T21:34:27.662Z,96985.98
2022-12-09T21:39:34.525Z,96981.31
2022-12-09T21:44:42.705Z,96990.76
2022-12-09T21:49:49.855Z,96989.90
2022-12-09T21:54:58.545Z,96984.84
2022-12-09T22:00:06.476Z,96985.24
2022-12-09T22:05:13.735Z,96986.33
2022-12-09T22:10:21.094Z,96985.32
2022-12-09T22:15:28.927Z,96988.59
2022-12-09T22:26:05.835Z,96987.10
2022-12-09T22:31:13.758Z,96982.44
2022-12-09T22:36:20.984Z,96983.92
2022-12-09T22:41:28.837Z,96980.41
2022-12-09T22:46:35.936Z,96985.34
2022-12-09T22:51:43.459Z,96984.27
2022-12-09T22:56:50.394Z,96979.29
2022-12-09T23:01:57.484Z,96976.64
2022-12-09T23:07:04.396Z,96976.95
2022-12-09T23:12:11.227Z,96988.79
2022-12-09T23:17:18.095Z,96988.56
2022-12-09T23:22:25.085Z,96992.92
2022-12-09T23:27:31.695Z,96991.83
2022-12-09T23:32:38.756Z,96983.27
2022-12-09T23:37:45.867Z,96982.29
2022-12-09T23:42:54.246Z,96980.73
2022-12-09T23:48:01.104Z,96971.84
2022-12-09T23:53:07.906Z,96976.75
2022-12-09T23:58:14.865Z,96975.04
